Terminal Aerodrome Forecast
Issued by NWS

Home | Current Version | Previous Version | Text Only | Print | Product List | Glossary On
Versions: 1 2 3 4 5 6 7 8 9 10 11 12 13 14 15 16 17 18
000
FTUS42 KRAH 280531
TAFRWI
TAF
KRWI 280531Z 2806/2906 18005KT P6SM FEW110 BKN250
      TEMPO 2812/2816 3SM -SHRA BKN015 OVC035
     FM281700 22010G17KT P6SM SCT040 BKN250 PROB30 2820/2824
      VRB15G30KT 2SM TSRA BKN025CB
     FM290000 27004KT P6SM SKC=

USA.gov is the U.S. government's official web portal to all federal, state and local government web resources and services.